Time,TemperatureF,DewpointF,PressureIn,WindDirection,WindDirectionDegrees,WindSpeedMPH,WindSpeedGustMPH,Humidity,HourlyPrecipIn,Conditions,Clouds,dailyrainin,SoftwareType,DateUTC
2013-09-26 00:02:00,66.9,58.8,-100.00,East,79,0.0,1.0,75,0.00,,,0.00,meteohub,2013-09-26 05:02:00,
2013-09-26 00:07:00,66.9,58.3,-100.00,East,79,0.0,1.0,74,0.00,,,0.00,meteohub,2013-09-26 05:07:00,
2013-09-26 00:12:00,66.9,58.3,-100.00,ENE,65,0.0,1.0,74,0.00,,,0.00,meteohub,2013-09-26 05:12:00,
2013-09-26 00:17:00,66.9,58.3,-100.00,ENE,65,0.0,1.0,74,0.00,,,0.00,meteohub,2013-09-26 05:17:00,
2013-09-26 00:22:00,66.7,58.1,-100.00,ENE,65,0.0,1.0,74,0.00,,,0.00,meteohub,2013-09-26 05:22:00,
2013-09-26 00:27:00,66.7,58.6,-100.00,ENE,65,0.0,1.0,75,0.00,,,0.00,meteohub,2013-09-26 05:27:00,
2013-09-26 00:33:00,66.6,58.5,-100.00,ENE,64,0.0,1.0,75,0.00,,,0.00,meteohub,2013-09-26 05:33:00,
2013-09-26 00:38:00,66.6,58.5,-100.00,ENE,65,0.0,1.0,75,0.00,,,0.00,meteohub,2013-09-26 05:38:00,
2013-09-26 00:43:00,66.4,58.3,-100.00,ENE,64,0.0,1.0,75,0.00,,,0.00,meteohub,2013-09-26 05:43:00,
2013-09-26 00:48:00,66.2,58.1,-100.00,ENE,65,0.0,1.0,75,0.00,,,0.00,meteohub,2013-09-26 05:48:00,
2013-09-26 00:53:00,66.2,58.5,-100.00,ENE,65,0.0,1.0,76,0.00,,,0.00,meteohub,2013-09-26 05:53:00,
2013-09-26 00:58:00,66.0,58.3,-100.00,ENE,64,0.0,1.0,76,0.00,,,0.00,meteohub,2013-09-26 05:58:00,
2013-09-26 01:03:00,66.0,58.3,-100.00,ENE,65,0.0,1.0,76,0.00,,,0.00,meteohub,2013-09-26 06:03:00,
2013-09-26 01:08:00,65.8,58.1,-100.00,ENE,65,0.0,1.0,76,0.00,,,0.00,meteohub,2013-09-26 06:08:00,
2013-09-26 01:13:00,65.7,57.9,-100.00,ENE,64,0.0,1.0,76,0.00,,,0.00,meteohub,2013-09-26 06:13:00,
2013-09-26 01:18:00,65.7,58.3,-100.00,ENE,64,0.0,1.0,77,0.00,,,0.00,meteohub,2013-09-26 06:18:00,
2013-09-26 01:23:00,65.5,58.1,-100.00,ENE,65,0.0,1.0,77,0.00,,,0.00,meteohub,2013-09-26 06:23:00,
2013-09-26 01:28:00,65.3,57.9,-100.00,ENE,65,0.0,1.0,77,0.00,,,0.00,meteohub,2013-09-26 06:28:00,
2013-09-26 01:33:00,65.1,57.7,-100.00,ENE,64,0.0,1.0,77,0.00,,,0.00,meteohub,2013-09-26 06:33:00,
2013-09-26 01:38:00,64.9,57.6,-100.00,ENE,65,0.0,1.0,77,0.00,,,0.00,meteohub,2013-09-26 06:38:00,
2013-09-26 01:43:00,64.9,57.9,-100.00,ENE,65,0.0,1.0,78,0.00,,,0.00,meteohub,2013-09-26 06:43:00,
2013-09-26 01:48:00,64.6,57.6,-100.00,ENE,65,0.0,1.0,78,0.00,,,0.00,meteohub,2013-09-26 06:48:00,
2013-09-26 01:53:00,64.4,57.7,-100.00,ENE,65,0.0,1.0,79,0.00,,,0.00,meteohub,2013-09-26 06:53:00,
2013-09-26 01:58:00,64.2,57.6,-100.00,ENE,64,1.0,1.0,79,0.00,,,0.00,meteohub,2013-09-26 06:58:00,
2013-09-26 02:03:00,64.0,57.4,-100.00,ENE,66,0.0,1.0,79,0.00,,,0.00,meteohub,2013-09-26 07:03:00,
2013-09-26 02:08:00,64.0,57.7,-100.00,ENE,65,0.0,1.0,80,0.00,,,0.00,meteohub,2013-09-26 07:08:00,
2013-09-26 02:13:00,63.9,57.6,-100.00,ENE,65,1.0,1.0,80,0.00,,,0.00,meteohub,2013-09-26 07:13:00,
2013-09-26 02:18:00,63.9,57.6,-100.00,ENE,66,0.0,1.0,80,0.00,,,0.00,meteohub,2013-09-26 07:18:00,
2013-09-26 02:23:00,63.7,57.4,-100.00,ENE,66,0.0,1.0,80,0.00,,,0.00,meteohub,2013-09-26 07:23:00,
2013-09-26 02:28:00,63.5,57.2,-100.00,ENE,67,0.0,1.0,80,0.00,,,0.00,meteohub,2013-09-26 07:28:00,
2013-09-26 02:33:00,63.5,57.2,-100.00,East,83,0.0,1.0,80,0.00,,,0.00,meteohub,2013-09-26 07:33:00,
2013-09-26 02:38:00,63.3,57.4,-100.00,ENE,64,0.0,1.0,81,0.00,,,0.00,meteohub,2013-09-26 07:38:00,
2013-09-26 02:43:00,63.1,57.2,-100.00,ENE,69,0.0,2.0,81,0.00,,,0.00,meteohub,2013-09-26 07:43:00,
2013-09-26 02:48:00,63.1,57.2,-100.00,ENE,68,0.0,2.0,81,0.00,,,0.00,meteohub,2013-09-26 07:48:00,
2013-09-26 02:53:00,63.0,57.0,-100.00,ENE,68,0.0,1.0,81,0.00,,,0.00,meteohub,2013-09-26 07:53:00,
2013-09-26 02:58:00,62.8,56.8,-100.00,East,80,0.0,1.0,81,0.00,,,0.00,meteohub,2013-09-26 07:58:00,
2013-09-26 03:03:00,62.8,57.2,-100.00,ENE,74,0.0,1.0,82,0.00,,,0.00,meteohub,2013-09-26 08:03:00,
2013-09-26 03:08:00,62.6,57.0,-100.00,East,79,0.0,1.0,82,0.00,,,0.00,meteohub,2013-09-26 08:08:00,
2013-09-26 03:13:00,62.4,56.8,-100.00,East,80,0.0,1.0,82,0.00,,,0.00,meteohub,2013-09-26 08:13:00,
2013-09-26 03:18:00,62.4,56.8,-100.00,East,80,0.0,3.0,82,0.00,,,0.00,meteohub,2013-09-26 08:18:00,
2013-09-26 03:23:00,62.2,56.7,-100.00,East,82,0.0,3.0,82,0.00,,,0.00,meteohub,2013-09-26 08:23:00,
2013-09-26 03:28:00,62.1,56.8,-100.00,East,80,0.0,2.0,83,0.00,,,0.00,meteohub,2013-09-26 08:28:00,
2013-09-26 03:33:00,61.9,56.7,-100.00,ENE,72,1.0,2.0,83,0.00,,,0.00,meteohub,2013-09-26 08:33:00,
2013-09-26 03:38:00,61.7,56.5,-100.00,ENE,67,0.0,3.0,83,0.00,,,0.00,meteohub,2013-09-26 08:38:00,
2013-09-26 03:43:00,61.5,56.3,-100.00,ENE,69,0.0,3.0,83,0.00,,,0.00,meteohub,2013-09-26 08:43:00,
2013-09-26 03:48:00,61.5,56.7,-100.00,ENE,70,1.0,3.0,84,0.00,,,0.00,meteohub,2013-09-26 08:48:00,
2013-09-26 03:54:00,61.3,56.5,-100.00,ENE,72,0.0,3.0,84,0.00,,,0.00,meteohub,2013-09-26 08:54:00,
2013-09-26 03:59:00,61.3,56.5,-100.00,ENE,72,1.0,3.0,84,0.00,,,0.00,meteohub,2013-09-26 08:59:00,
2013-09-26 04:04:00,61.3,56.5,-100.00,ENE,71,1.0,2.0,84,0.00,,,0.00,meteohub,2013-09-26 09:04:00,
2013-09-26 04:09:00,61.2,56.3,-100.00,ENE,70,0.0,2.0,84,0.00,,,0.00,meteohub,2013-09-26 09:09:00,
2013-09-26 04:14:00,61.2,56.3,-100.00,ENE,71,0.0,3.0,84,0.00,,,0.00,meteohub,2013-09-26 09:14:00,
2013-09-26 04:19:00,61.2,56.3,-100.00,ENE,75,0.0,3.0,84,0.00,,,0.00,meteohub,2013-09-26 09:19:00,
2013-09-26 04:24:00,61.0,56.5,-100.00,ENE,74,0.0,2.0,85,0.00,,,0.00,meteohub,2013-09-26 09:24:00,
2013-09-26 04:29:00,61.0,56.5,-100.00,ENE,74,0.0,2.0,85,0.00,,,0.00,meteohub,2013-09-26 09:29:00,
2013-09-26 04:34:00,60.8,56.3,-100.00,ENE,74,0.0,2.0,85,0.00,,,0.00,meteohub,2013-09-26 09:34:00,
2013-09-26 04:39:00,60.6,56.1,-100.00,ENE,73,0.0,2.0,85,0.00,,,0.00,meteohub,2013-09-26 09:39:00,
2013-09-26 04:44:00,60.6,56.1,-100.00,ENE,78,0.0,2.0,85,0.00,,,0.00,meteohub,2013-09-26 09:44:00,
2013-09-26 04:49:00,60.4,56.3,-100.00,ENE,71,0.0,3.0,86,0.00,,,0.00,meteohub,2013-09-26 09:49:00,
2013-09-26 04:54:00,60.4,56.3,-100.00,ENE,69,0.0,3.0,86,0.00,,,0.00,meteohub,2013-09-26 09:54:00,
2013-09-26 04:59:00,60.3,56.1,-100.00,ENE,69,1.0,3.0,86,0.00,,,0.00,meteohub,2013-09-26 09:59:00,
2013-09-26 05:04:00,60.3,56.1,-100.00,ENE,71,2.0,3.0,86,0.00,,,0.00,meteohub,2013-09-26 10:04:00,
2013-09-26 05:09:00,60.3,56.1,-100.00,ENE,76,0.0,3.0,86,0.00,,,0.00,meteohub,2013-09-26 10:09:00,
2013-09-26 05:14:00,60.1,55.9,-100.00,ENE,76,0.0,3.0,86,0.00,,,0.00,meteohub,2013-09-26 10:14:00,
2013-09-26 05:19:00,60.1,55.9,-100.00,ENE,76,2.0,3.0,86,0.00,,,0.00,meteohub,2013-09-26 10:19:00,
2013-09-26 05:24:00,60.1,55.9,-100.00,ENE,75,0.0,3.0,86,0.00,,,0.00,meteohub,2013-09-26 10:24:00,
2013-09-26 05:29:00,60.1,56.1,-100.00,East,84,0.0,4.0,87,0.00,,,0.00,meteohub,2013-09-26 10:29:00,
2013-09-26 05:34:00,59.9,55.9,-100.00,East,84,0.0,4.0,87,0.00,,,0.00,meteohub,2013-09-26 10:34:00,
2013-09-26 05:39:00,59.7,55.8,-100.00,East,82,0.0,4.0,87,0.00,,,0.00,meteohub,2013-09-26 10:39:00,
2013-09-26 05:44:00,59.7,55.8,-100.00,East,83,0.0,3.0,87,0.00,,,0.00,meteohub,2013-09-26 10:44:00,
2013-09-26 05:49:00,59.5,55.6,-100.00,East,82,0.0,3.0,87,0.00,,,0.00,meteohub,2013-09-26 10:49:00,
2013-09-26 05:54:00,59.5,55.6,-100.00,East,85,0.0,3.0,87,0.00,,,0.00,meteohub,2013-09-26 10:54:00,
2013-09-26 05:59:00,59.7,56.1,-100.00,East,87,0.0,2.0,88,0.00,,,0.00,meteohub,2013-09-26 10:59:00,
2013-09-26 06:04:00,59.7,56.1,-100.00,East,87,0.0,3.0,88,0.00,,,0.00,meteohub,2013-09-26 11:04:00,
2013-09-26 06:09:00,59.5,55.9,-100.00,East,87,0.0,3.0,88,0.00,,,0.00,meteohub,2013-09-26 11:09:00,
2013-09-26 06:14:00,59.5,55.9,-100.00,East,86,0.0,3.0,88,0.00,,,0.00,meteohub,2013-09-26 11:14:00,
2013-09-26 06:19:00,59.4,55.8,-100.00,East,86,0.0,3.0,88,0.00,,,0.00,meteohub,2013-09-26 11:19:00,
2013-09-26 06:24:00,59.4,55.8,-100.00,East,86,0.0,3.0,88,0.00,,,0.00,meteohub,2013-09-26 11:24:00,
2013-09-26 06:29:00,59.4,55.8,-100.00,East,86,0.0,1.0,88,0.00,,,0.00,meteohub,2013-09-26 11:29:00,
2013-09-26 06:34:00,59.4,55.8,-100.00,East,86,0.0,1.0,88,0.00,,,0.00,meteohub,2013-09-26 11:34:00,
2013-09-26 06:39:00,59.4,55.8,-100.00,East,86,0.0,1.0,88,0.00,,,0.00,meteohub,2013-09-26 11:39:00,
2013-09-26 06:44:00,59.0,55.4,-100.00,East,86,0.0,1.0,88,0.00,,,0.00,meteohub,2013-09-26 11:44:00,
2013-09-26 06:49:00,59.0,55.8,-100.00,East,86,0.0,3.0,89,0.00,,,0.00,meteohub,2013-09-26 11:49:00,
2013-09-26 06:55:00,59.0,55.8,-100.00,East,88,0.0,3.0,89,0.00,,,0.00,meteohub,2013-09-26 11:55:00,
2013-09-26 07:00:00,59.0,55.8,-100.00,East,84,3.0,3.0,89,0.00,,,0.00,meteohub,2013-09-26 12:00:00,
2013-09-26 07:05:00,59.0,55.8,-100.00,East,86,0.0,3.0,89,0.00,,,0.00,meteohub,2013-09-26 12:05:00,
2013-09-26 07:10:00,59.0,55.8,-100.00,East,86,0.0,3.0,89,0.00,,,0.00,meteohub,2013-09-26 12:10:00,
2013-09-26 07:15:00,59.2,55.9,-100.00,ENE,70,0.0,3.0,89,0.00,,,0.00,meteohub,2013-09-26 12:15:00,
2013-09-26 07:20:00,59.4,56.1,-100.00,ENE,77,0.0,3.0,89,0.00,,,0.00,meteohub,2013-09-26 12:20:00,
2013-09-26 07:25:00,59.7,56.5,-100.00,ENE,78,0.0,4.0,89,0.00,,,0.00,meteohub,2013-09-26 12:25:00,
2013-09-26 07:30:00,59.9,56.7,-100.00,ENE,78,0.0,4.0,89,0.00,,,0.00,meteohub,2013-09-26 12:30:00,
2013-09-26 07:35:00,60.3,57.0,-100.00,ENE,78,0.0,4.0,89,0.00,,,0.00,meteohub,2013-09-26 12:35:00,
2013-09-26 07:40:00,60.4,56.8,-100.00,ENE,78,0.0,4.0,88,0.00,,,0.00,meteohub,2013-09-26 12:40:00,
2013-09-26 07:45:00,60.8,57.2,-100.00,ENE,78,0.0,3.0,88,0.00,,,0.00,meteohub,2013-09-26 12:45:00,
2013-09-26 07:50:00,61.2,57.2,-100.00,ENE,78,0.0,1.0,87,0.00,,,0.00,meteohub,2013-09-26 12:50:00,
2013-09-26 07:55:00,61.3,57.4,-100.00,East,85,0.0,1.0,87,0.00,,,0.00,meteohub,2013-09-26 12:55:00,
2013-09-26 08:00:00,61.5,57.6,-100.00,East,93,0.0,3.0,87,0.00,,,0.00,meteohub,2013-09-26 13:00:00,
2013-09-26 08:05:00,61.9,57.6,-100.00,East,90,0.0,3.0,86,0.00,,,0.00,meteohub,2013-09-26 13:05:00,
2013-09-26 08:10:00,62.2,57.9,-100.00,East,94,2.0,3.0,86,0.00,,,0.00,meteohub,2013-09-26 13:10:00,
2013-09-26 08:15:00,62.8,58.5,-100.00,East,96,0.0,3.0,86,0.00,,,0.00,meteohub,2013-09-26 13:15:00,
2013-09-26 08:20:00,63.1,58.6,-100.00,East,101,0.0,3.0,85,0.00,,,0.00,meteohub,2013-09-26 13:20:00,
2013-09-26 08:25:00,63.9,59.0,-100.00,East,96,0.0,3.0,84,0.00,,,0.00,meteohub,2013-09-26 13:25:00,
2013-09-26 08:30:00,64.0,59.2,-100.00,SE,126,4.0,5.0,84,0.00,,,0.00,meteohub,2013-09-26 13:30:00,
2013-09-26 08:35:00,64.2,59.0,-100.00,ESE,113,0.0,6.0,83,0.00,,,0.00,meteohub,2013-09-26 13:35:00,
2013-09-26 08:40:00,64.8,59.5,-100.00,East,101,2.0,6.0,83,0.00,,,0.00,meteohub,2013-09-26 13:40:00,
2013-09-26 08:45:00,65.5,60.3,-100.00,ESE,102,0.0,6.0,83,0.00,,,0.00,meteohub,2013-09-26 13:45:00,
2013-09-26 08:50:00,66.4,61.0,-100.00,East,101,0.0,4.0,83,0.00,,,0.00,meteohub,2013-09-26 13:50:00,
2013-09-26 08:55:00,66.9,61.0,-100.00,ESE,122,1.0,4.0,81,0.00,,,0.00,meteohub,2013-09-26 13:55:00,
2013-09-26 09:00:00,67.5,61.2,-100.00,ESE,118,0.0,5.0,80,0.00,,,0.00,meteohub,2013-09-26 14:00:00,
2013-09-26 09:05:00,67.6,61.0,-100.00,ESE,111,2.0,7.0,79,0.00,,,0.00,meteohub,2013-09-26 14:05:00,
2013-09-26 09:10:00,68.0,61.2,-100.00,ESE,113,1.0,7.0,79,0.00,,,0.00,meteohub,2013-09-26 14:10:00,
2013-09-26 09:15:00,68.5,61.7,-100.00,SE,125,3.0,7.0,79,0.00,,,0.00,meteohub,2013-09-26 14:15:00,
2013-09-26 09:20:00,69.4,62.2,-100.00,ESE,122,2.0,6.0,78,0.00,,,0.00,meteohub,2013-09-26 14:20:00,
2013-09-26 09:25:00,70.0,62.4,-100.00,ESE,121,0.0,6.0,77,0.00,,,0.00,meteohub,2013-09-26 14:25:00,
2013-09-26 09:30:00,70.3,62.4,-100.00,SE,132,5.0,6.0,76,0.00,,,0.00,meteohub,2013-09-26 14:30:00,
2013-09-26 09:35:00,70.9,62.6,-100.00,ESE,121,4.0,6.0,75,0.00,,,0.00,meteohub,2013-09-26 14:35:00,
2013-09-26 09:40:00,71.2,62.6,-100.00,ESE,123,4.0,7.0,74,0.00,,,0.00,meteohub,2013-09-26 14:40:00,
2013-09-26 09:45:00,71.8,63.0,-100.00,ESE,122,2.0,7.0,74,0.00,,,0.00,meteohub,2013-09-26 14:45:00,
2013-09-26 09:50:00,72.7,63.5,-100.00,ESE,121,0.0,7.0,73,0.00,,,0.00,meteohub,2013-09-26 14:50:00,
2013-09-26 09:55:00,73.8,64.2,-100.00,ESE,121,0.0,6.0,72,0.00,,,0.00,meteohub,2013-09-26 14:55:00,
2013-09-26 10:00:00,74.8,64.0,-100.00,SE,136,0.0,6.0,69,0.00,,,0.00,meteohub,2013-09-26 15:00:00,
2013-09-26 10:06:00,75.4,64.6,-100.00,ESE,113,0.0,6.0,69,0.00,,,0.00,meteohub,2013-09-26 15:06:00,
2013-09-26 10:11:00,75.6,64.2,-100.00,ESE,115,0.0,7.0,68,0.00,,,0.00,meteohub,2013-09-26 15:11:00,
2013-09-26 10:16:00,76.1,64.4,-100.00,SE,145,0.0,7.0,67,0.00,,,0.00,meteohub,2013-09-26 15:16:00,
2013-09-26 10:21:00,76.5,64.8,-100.00,ESE,119,2.0,7.0,67,0.00,,,0.00,meteohub,2013-09-26 15:21:00,
2013-09-26 10:26:00,76.8,64.6,-100.00,ESE,123,0.0,6.0,66,0.00,,,0.00,meteohub,2013-09-26 15:26:00,
2013-09-26 10:31:00,77.5,65.3,-100.00,ESE,112,1.0,6.0,66,0.00,,,0.00,meteohub,2013-09-26 15:31:00,
2013-09-26 10:36:00,77.7,64.9,-100.00,ESE,115,0.0,7.0,65,0.00,,,0.00,meteohub,2013-09-26 15:36:00,
2013-09-26 10:41:00,78.4,65.3,-100.00,South,172,0.0,7.0,64,0.00,,,0.00,meteohub,2013-09-26 15:41:00,
2013-09-26 10:46:00,79.2,65.5,-100.00,SSE,163,0.0,7.0,63,0.00,,,0.00,meteohub,2013-09-26 15:46:00,
2013-09-26 10:51:00,79.2,64.9,-100.00,SE,133,3.0,8.0,62,0.00,,,0.00,meteohub,2013-09-26 15:51:00,
2013-09-26 10:56:00,78.6,64.9,-100.00,ESE,121,5.0,8.0,63,0.00,,,0.00,meteohub,2013-09-26 15:56:00,
2013-09-26 11:01:00,79.2,65.5,-100.00,ESE,117,0.0,9.0,63,0.00,,,0.00,meteohub,2013-09-26 16:01:00,
2013-09-26 11:06:00,80.8,66.6,-100.00,ESE,106,5.0,9.0,62,0.00,,,0.00,meteohub,2013-09-26 16:06:00,
2013-09-26 11:11:00,81.1,66.4,-100.00,ESE,115,0.0,6.0,61,0.00,,,0.00,meteohub,2013-09-26 16:11:00,
2013-09-26 11:16:00,82.0,66.7,-100.00,South,186,0.0,7.0,60,0.00,,,0.00,meteohub,2013-09-26 16:16:00,
2013-09-26 11:21:00,82.8,66.6,-100.00,SE,128,3.0,7.0,58,0.00,,,0.00,meteohub,2013-09-26 16:21:00,
2013-09-26 11:26:00,82.8,66.0,-100.00,ESE,117,5.0,7.0,57,0.00,,,0.00,meteohub,2013-09-26 16:26:00,
2013-09-26 11:31:00,81.9,65.7,-100.00,SSE,153,3.0,10.0,58,0.00,,,0.00,meteohub,2013-09-26 16:31:00,
2013-09-26 11:36:00,81.5,65.3,-100.00,SE,129,7.0,12.0,58,0.00,,,0.00,meteohub,2013-09-26 16:36:00,
2013-09-26 11:41:00,81.7,65.5,-100.00,ENE,76,1.0,12.0,58,0.00,,,0.00,meteohub,2013-09-26 16:41:00,
2013-09-26 11:47:00,82.0,65.3,-100.00,SE,134,2.0,12.0,57,0.00,,,0.00,meteohub,2013-09-26 16:47:00,
2013-09-26 11:52:00,82.0,65.8,-100.00,ESE,111,3.0,10.0,58,0.00,,,0.00,meteohub,2013-09-26 16:52:00,
2013-09-26 11:57:00,82.4,65.7,-100.00,SSE,154,4.0,10.0,57,0.00,,,0.00,meteohub,2013-09-26 16:57:00,
2013-09-26 12:02:00,82.8,66.0,-100.00,SE,133,7.0,10.0,57,0.00,,,0.00,meteohub,2013-09-26 17:02:00,
2013-09-26 12:07:00,82.4,65.7,-100.00,SSE,151,2.0,11.0,57,0.00,,,0.00,meteohub,2013-09-26 17:07:00,
2013-09-26 12:12:00,82.9,65.1,-100.00,SE,134,4.0,11.0,55,0.00,,,0.00,meteohub,2013-09-26 17:12:00,
2013-09-26 12:17:00,83.7,65.8,-100.00,ESE,120,0.0,11.0,55,0.00,,,0.00,meteohub,2013-09-26 17:17:00,
2013-09-26 12:22:00,83.8,65.5,-100.00,SE,144,6.0,11.0,54,0.00,,,0.00,meteohub,2013-09-26 17:22:00,
2013-09-26 12:27:00,84.0,65.7,-100.00,SSE,165,2.0,11.0,54,0.00,,,0.00,meteohub,2013-09-26 17:27:00,
2013-09-26 12:32:00,84.6,64.9,-100.00,SE,125,6.0,11.0,52,0.00,,,0.00,meteohub,2013-09-26 17:32:00,
2013-09-26 12:37:00,84.2,65.3,-100.00,ESE,122,7.0,11.0,53,0.00,,,0.00,meteohub,2013-09-26 17:37:00,
2013-09-26 12:42:00,84.4,65.3,-100.00,East,99,7.0,12.0,53,0.00,,,0.00,meteohub,2013-09-26 17:42:00,
2013-09-26 12:47:00,84.6,64.4,-100.00,ESE,115,9.0,13.0,51,0.00,,,0.00,meteohub,2013-09-26 17:47:00,
2013-09-26 12:52:00,84.6,63.9,-100.00,SSE,163,2.0,13.0,50,0.00,,,0.00,meteohub,2013-09-26 17:52:00,
2013-09-26 12:57:00,84.6,64.9,-100.00,South,190,9.0,13.0,52,0.00,,,0.00,meteohub,2013-09-26 17:57:00,
2013-09-26 13:02:00,84.6,64.4,-100.00,SSE,161,2.0,12.0,51,0.00,,,0.00,meteohub,2013-09-26 18:02:00,
2013-09-26 13:07:00,84.7,64.6,-100.00,East,86,3.0,12.0,51,0.00,,,0.00,meteohub,2013-09-26 18:07:00,
2013-09-26 13:13:00,84.6,64.9,-100.00,SSW,202,9.0,12.0,52,0.00,,,0.00,meteohub,2013-09-26 18:13:00,
2013-09-26 13:18:00,85.3,65.1,-100.00,SSW,192,0.0,11.0,51,0.00,,,0.00,meteohub,2013-09-26 18:18:00,
2013-09-26 13:23:00,85.6,64.9,-100.00,ESE,118,0.0,10.0,50,0.00,,,0.00,meteohub,2013-09-26 18:23:00,
2013-09-26 13:28:00,84.9,64.8,-100.00,SSW,198,0.0,13.0,51,0.00,,,0.00,meteohub,2013-09-26 18:28:00,
2013-09-26 13:33:00,85.3,64.6,-100.00,ESE,114,6.0,13.0,50,0.00,,,0.00,meteohub,2013-09-26 18:33:00,
2013-09-26 13:38:00,84.9,64.8,-100.00,ESE,123,0.0,11.0,51,0.00,,,0.00,meteohub,2013-09-26 18:38:00,
2013-09-26 13:43:00,84.9,64.2,-100.00,South,177,9.0,11.0,50,0.00,,,0.00,meteohub,2013-09-26 18:43:00,
2013-09-26 13:48:00,84.7,64.0,-100.00,SSE,165,0.0,12.0,50,0.00,,,0.00,meteohub,2013-09-26 18:48:00,
2013-09-26 13:53:00,85.3,64.0,-100.00,SE,129,4.0,12.0,49,0.00,,,0.00,meteohub,2013-09-26 18:53:00,
2013-09-26 13:58:00,85.1,64.4,-100.00,South,175,0.0,12.0,50,0.00,,,0.00,meteohub,2013-09-26 18:58:00,
2013-09-26 14:03:00,85.6,63.7,-100.00,South,184,0.0,12.0,48,0.00,,,0.00,meteohub,2013-09-26 19:03:00,
2013-09-26 14:08:00,85.6,63.1,-100.00,SSE,153,10.0,12.0,47,0.00,,,0.00,meteohub,2013-09-26 19:08:00,
2013-09-26 14:13:00,85.6,63.1,-100.00,SE,129,0.0,10.0,47,0.00,,,0.00,meteohub,2013-09-26 19:13:00,
2013-09-26 14:18:00,85.6,63.7,-100.00,ESE,113,6.0,10.0,48,0.00,,,0.00,meteohub,2013-09-26 19:18:00,
2013-09-26 14:23:00,85.6,63.1,-100.00,ESE,102,2.0,13.0,47,0.00,,,0.00,meteohub,2013-09-26 19:23:00,
2013-09-26 14:28:00,84.9,63.7,-100.00,SE,126,10.0,13.0,49,0.00,,,0.00,meteohub,2013-09-26 19:28:00,
2013-09-26 14:33:00,84.7,62.2,-100.00,ESE,105,6.0,13.0,47,0.00,,,0.00,meteohub,2013-09-26 19:33:00,
2013-09-26 14:38:00,84.9,63.7,-100.00,ESE,112,3.0,12.0,49,0.00,,,0.00,meteohub,2013-09-26 19:38:00,
2013-09-26 14:43:00,85.3,63.3,-100.00,SE,134,1.0,12.0,48,0.00,,,0.00,meteohub,2013-09-26 19:43:00,
2013-09-26 14:48:00,85.3,63.3,-100.00,NE,46,3.0,13.0,48,0.00,,,0.00,meteohub,2013-09-26 19:48:00,
2013-09-26 14:53:00,84.9,64.2,-100.00,ESE,118,3.0,13.0,50,0.00,,,0.00,meteohub,2013-09-26 19:53:00,
2013-09-26 14:58:00,84.6,63.3,-100.00,ESE,116,3.0,13.0,49,0.00,,,0.00,meteohub,2013-09-26 19:58:00,
2013-09-26 15:04:00,84.7,63.5,-100.00,ESE,121,8.0,13.0,49,0.00,,,0.00,meteohub,2013-09-26 20:04:00,
2013-09-26 15:08:00,84.2,63.5,-100.00,ESE,118,5.0,13.0,50,0.00,,,0.00,meteohub,2013-09-26 20:08:00,
2013-09-26 15:14:00,84.0,63.9,-100.00,ESE,114,5.0,13.0,51,0.00,,,0.00,meteohub,2013-09-26 20:14:00,
2013-09-26 15:19:00,83.8,63.9,-100.00,ESE,113,7.0,12.0,51,0.00,,,0.00,meteohub,2013-09-26 20:19:00,
2013-09-26 15:24:00,83.8,63.9,-100.00,SE,134,5.0,11.0,51,0.00,,,0.00,meteohub,2013-09-26 20:24:00,
2013-09-26 15:29:00,83.8,63.9,-100.00,ESE,117,11.0,11.0,51,0.00,,,0.00,meteohub,2013-09-26 20:29:00,
2013-09-26 15:34:00,83.8,64.4,-100.00,East,98,3.0,12.0,52,0.00,,,0.00,meteohub,2013-09-26 20:34:00,
2013-09-26 15:39:00,83.7,63.7,-100.00,East,94,1.0,12.0,51,0.00,,,0.00,meteohub,2013-09-26 20:39:00,
2013-09-26 15:44:00,84.4,63.7,-100.00,SE,132,9.0,12.0,50,0.00,,,0.00,meteohub,2013-09-26 20:44:00,
2013-09-26 15:50:00,84.0,63.3,-100.00,SE,128,10.0,12.0,50,0.00,,,0.00,meteohub,2013-09-26 20:50:00,
2013-09-26 15:55:00,84.4,64.2,-100.00,SE,128,0.0,13.0,51,0.00,,,0.00,meteohub,2013-09-26 20:55:00,
2013-09-26 16:00:00,84.6,63.9,-100.00,SE,135,9.0,13.0,50,0.00,,,0.00,meteohub,2013-09-26 21:00:00,
2013-09-26 16:05:00,84.6,63.9,-100.00,South,173,6.0,13.0,50,0.00,,,0.00,meteohub,2013-09-26 21:05:00,
2013-09-26 16:10:00,84.6,63.9,-100.00,SE,128,4.0,12.0,50,0.00,,,0.00,meteohub,2013-09-26 21:10:00,
2013-09-26 16:15:00,84.2,64.0,-100.00,ESE,123,5.0,12.0,51,0.00,,,0.00,meteohub,2013-09-26 21:15:00,
2013-09-26 16:20:00,83.7,62.4,-100.00,ESE,109,5.0,13.0,49,0.00,,,0.00,meteohub,2013-09-26 21:20:00,
2013-09-26 16:25:00,83.5,63.5,-100.00,ESE,113,1.0,14.0,51,0.00,,,0.00,meteohub,2013-09-26 21:25:00,
2013-09-26 16:31:00,83.5,63.5,-100.00,ESE,122,5.0,14.0,51,0.00,,,0.00,meteohub,2013-09-26 21:31:00,
2013-09-26 16:36:00,83.7,63.7,-100.00,ESE,121,0.0,12.0,51,0.00,,,0.00,meteohub,2013-09-26 21:36:00,
2013-09-26 16:41:00,83.7,63.0,-100.00,SE,124,10.0,12.0,50,0.00,,,0.00,meteohub,2013-09-26 21:41:00,
2013-09-26 16:46:00,83.3,62.1,-100.00,East,87,2.0,10.0,49,0.00,,,0.00,meteohub,2013-09-26 21:46:00,
2013-09-26 16:51:00,83.3,62.8,-100.00,ESE,117,5.0,10.0,50,0.00,,,0.00,meteohub,2013-09-26 21:51:00,
2013-09-26 16:56:00,83.5,63.5,-100.00,ESE,110,2.0,10.0,51,0.00,,,0.00,meteohub,2013-09-26 21:56:00,
2013-09-26 17:01:00,83.5,63.5,-100.00,ESE,119,0.0,10.0,51,0.00,,,0.00,meteohub,2013-09-26 22:01:00,
2013-09-26 17:06:00,83.1,62.6,-100.00,ESE,123,8.0,9.0,50,0.00,,,0.00,meteohub,2013-09-26 22:06:00,
2013-09-26 17:11:00,82.8,62.8,-100.00,ESE,121,5.0,11.0,51,0.00,,,0.00,meteohub,2013-09-26 22:11:00,
2013-09-26 17:16:00,82.6,62.6,-100.00,SE,126,2.0,11.0,51,0.00,,,0.00,meteohub,2013-09-26 22:16:00,
2013-09-26 17:21:00,82.6,62.6,-100.00,SE,125,3.0,11.0,51,0.00,,,0.00,meteohub,2013-09-26 22:21:00,
2013-09-26 17:26:00,82.2,62.2,-100.00,East,90,5.0,9.0,51,0.00,,,0.00,meteohub,2013-09-26 22:26:00,
2013-09-26 17:31:00,82.0,62.6,-100.00,ESE,121,4.0,11.0,52,0.00,,,0.00,meteohub,2013-09-26 22:31:00,
2013-09-26 17:36:00,81.9,61.9,-100.00,ESE,115,4.0,11.0,51,0.00,,,0.00,meteohub,2013-09-26 22:36:00,
2013-09-26 17:42:00,81.9,61.9,-100.00,ESE,117,2.0,11.0,51,0.00,,,0.00,meteohub,2013-09-26 22:42:00,
2013-09-26 17:47:00,81.7,61.9,-100.00,East,95,5.0,11.0,51,0.00,,,0.00,meteohub,2013-09-26 22:47:00,
2013-09-26 17:52:00,81.7,61.9,-100.00,SE,132,5.0,12.0,51,0.00,,,0.00,meteohub,2013-09-26 22:52:00,
2013-09-26 17:57:00,81.5,62.2,-100.00,ESE,117,4.0,12.0,52,0.00,,,0.00,meteohub,2013-09-26 22:57:00,
2013-09-26 18:02:00,81.1,62.4,-100.00,SE,126,6.0,12.0,53,0.00,,,0.00,meteohub,2013-09-26 23:02:00,
2013-09-26 18:07:00,81.0,62.2,-100.00,ESE,117,4.0,9.0,53,0.00,,,0.00,meteohub,2013-09-26 23:07:00,
2013-09-26 18:12:00,80.6,61.9,-100.00,ESE,121,4.0,9.0,53,0.00,,,0.00,meteohub,2013-09-26 23:12:00,
2013-09-26 18:17:00,80.2,62.1,-100.00,SE,128,2.0,9.0,54,0.00,,,0.00,meteohub,2013-09-26 23:17:00,
2013-09-26 18:22:00,80.1,62.4,-100.00,SE,126,2.0,7.0,55,0.00,,,0.00,meteohub,2013-09-26 23:22:00,
2013-09-26 18:27:00,79.9,62.2,-100.00,ESE,120,1.0,7.0,55,0.00,,,0.00,meteohub,2013-09-26 23:27:00,
2013-09-26 18:32:00,79.3,62.2,-100.00,ESE,119,0.0,6.0,56,0.00,,,0.00,meteohub,2013-09-26 23:32:00,
2013-09-26 18:37:00,79.0,61.9,-100.00,ESE,120,0.0,6.0,56,0.00,,,0.00,meteohub,2013-09-26 23:37:00,
2013-09-26 18:42:00,78.6,62.1,-100.00,ESE,119,0.0,5.0,57,0.00,,,0.00,meteohub,2013-09-26 23:42:00,
2013-09-26 18:47:00,78.3,62.2,-100.00,ESE,120,0.0,5.0,58,0.00,,,0.00,meteohub,2013-09-26 23:47:00,
2013-09-26 18:52:00,77.9,61.9,-100.00,ESE,120,0.0,2.0,58,0.00,,,0.00,meteohub,2013-09-26 23:52:00,
2013-09-26 18:57:00,77.4,61.9,-100.00,ESE,119,0.0,1.0,59,0.00,,,0.00,meteohub,2013-09-26 23:57:00,
2013-09-26 19:02:00,76.8,61.9,-100.00,ESE,120,0.0,1.0,60,0.00,,,0.00,meteohub,2013-09-27 00:02:00,
2013-09-26 19:07:00,76.6,62.2,-100.00,ESE,119,0.0,1.0,61,0.00,,,0.00,meteohub,2013-09-27 00:07:00,
2013-09-26 19:08:00,76.5,62.1,-100.00,ESE,120,0.0,1.0,61,0.00,,,0.00,meteohub,2013-09-27 00:08:00,
2013-09-26 19:13:00,76.1,62.1,-100.00,ESE,119,0.0,1.0,62,0.00,,,0.00,meteohub,2013-09-27 00:13:00,
2013-09-26 19:18:00,75.6,62.1,-100.00,ESE,120,0.0,1.0,63,0.00,,,0.00,meteohub,2013-09-27 00:18:00,
2013-09-26 19:23:00,75.4,61.9,-100.00,ESE,119,0.0,1.0,63,0.00,,,0.00,meteohub,2013-09-27 00:23:00,
2013-09-26 19:28:00,75.2,62.2,-100.00,ESE,120,0.0,1.0,64,0.00,,,0.00,meteohub,2013-09-27 00:28:00,
2013-09-26 19:33:00,74.8,62.2,-100.00,ESE,119,0.0,3.0,65,0.00,,,0.00,meteohub,2013-09-27 00:33:00,
2013-09-26 19:38:00,74.7,62.1,-100.00,ESE,119,0.0,3.0,65,0.00,,,0.00,meteohub,2013-09-27 00:38:00,
2013-09-26 19:43:00,74.5,61.9,-100.00,ESE,119,0.0,3.0,65,0.00,,,0.00,meteohub,2013-09-27 00:43:00,
2013-09-26 19:48:00,74.1,62.1,-100.00,ESE,119,0.0,2.0,66,0.00,,,0.00,meteohub,2013-09-27 00:48:00,
2013-09-26 19:53:00,74.1,62.1,-100.00,ESE,118,0.0,2.0,66,0.00,,,0.00,meteohub,2013-09-27 00:53:00,
2013-09-26 19:58:00,73.9,61.9,-100.00,ESE,119,0.0,3.0,66,0.00,,,0.00,meteohub,2013-09-27 00:58:00,
2013-09-26 20:03:00,73.8,61.7,-100.00,ESE,119,0.0,3.0,66,0.00,,,0.00,meteohub,2013-09-27 01:03:00,
2013-09-26 20:08:00,73.4,61.3,-100.00,ESE,119,0.0,3.0,66,0.00,,,0.00,meteohub,2013-09-27 01:08:00,
2013-09-26 20:13:00,73.2,61.5,-100.00,ESE,119,0.0,3.0,67,0.00,,,0.00,meteohub,2013-09-27 01:13:00,
2013-09-26 20:18:00,73.0,61.5,-100.00,ESE,118,0.0,2.0,67,0.00,,,0.00,meteohub,2013-09-27 01:18:00,
2013-09-26 20:23:00,72.9,61.7,-100.00,ESE,118,0.0,2.0,68,0.00,,,0.00,meteohub,2013-09-27 01:23:00,
2013-09-26 20:28:00,72.9,61.7,-100.00,ESE,115,0.0,3.0,68,0.00,,,0.00,meteohub,2013-09-27 01:28:00,
2013-09-26 20:33:00,72.7,61.5,-100.00,ESE,116,0.0,3.0,68,0.00,,,0.00,meteohub,2013-09-27 01:33:00,
2013-09-26 20:38:00,72.3,61.2,-100.00,ESE,115,0.0,3.0,68,0.00,,,0.00,meteohub,2013-09-27 01:38:00,
2013-09-26 20:43:00,72.1,61.3,-100.00,ESE,115,0.0,4.0,69,0.00,,,0.00,meteohub,2013-09-27 01:43:00,
2013-09-26 20:48:00,72.1,61.3,-100.00,ESE,115,0.0,4.0,69,0.00,,,0.00,meteohub,2013-09-27 01:48:00,
2013-09-26 20:54:00,72.1,61.3,-100.00,ESE,114,0.0,4.0,69,0.00,,,0.00,meteohub,2013-09-27 01:54:00,
2013-09-26 20:59:00,72.0,61.2,-100.00,ESE,114,0.0,3.0,69,0.00,,,0.00,meteohub,2013-09-27 01:59:00,
2013-09-26 21:04:00,71.8,61.5,-100.00,ESE,114,0.0,3.0,70,0.00,,,0.00,meteohub,2013-09-27 02:04:00,
2013-09-26 21:09:00,71.6,61.3,-100.00,ESE,114,0.0,3.0,70,0.00,,,0.00,meteohub,2013-09-27 02:09:00,
2013-09-26 21:14:00,71.4,61.2,-100.00,ESE,114,0.0,5.0,70,0.00,,,0.00,meteohub,2013-09-27 02:14:00,
2013-09-26 21:19:00,71.2,61.3,-100.00,ESE,114,0.0,5.0,71,0.00,,,0.00,meteohub,2013-09-27 02:19:00,
2013-09-26 21:24:00,71.2,61.3,-100.00,ESE,114,0.0,5.0,71,0.00,,,0.00,meteohub,2013-09-27 02:24:00,
2013-09-26 21:29:00,71.1,61.2,-100.00,ESE,114,0.0,1.0,71,0.00,,,0.00,meteohub,2013-09-27 02:29:00,
2013-09-26 21:34:00,70.9,61.0,-100.00,ESE,114,0.0,1.0,71,0.00,,,0.00,meteohub,2013-09-27 02:34:00,
2013-09-26 21:39:00,70.7,60.8,-100.00,ESE,115,0.0,3.0,71,0.00,,,0.00,meteohub,2013-09-27 02:39:00,
2013-09-26 21:44:00,70.5,61.0,-100.00,ESE,114,0.0,3.0,72,0.00,,,0.00,meteohub,2013-09-27 02:44:00,
2013-09-26 21:49:00,70.3,60.8,-100.00,ESE,114,0.0,3.0,72,0.00,,,0.00,meteohub,2013-09-27 02:49:00,
2013-09-26 21:54:00,70.3,60.8,-100.00,ESE,114,0.0,2.0,72,0.00,,,0.00,meteohub,2013-09-27 02:54:00,
2013-09-26 21:59:00,70.2,60.6,-100.00,ESE,113,0.0,1.0,72,0.00,,,0.00,meteohub,2013-09-27 02:59:00,
2013-09-26 22:04:00,70.2,60.6,-100.00,ESE,115,0.0,1.0,72,0.00,,,0.00,meteohub,2013-09-27 03:04:00,
2013-09-26 22:09:00,70.2,60.6,-100.00,ESE,114,0.0,1.0,72,0.00,,,0.00,meteohub,2013-09-27 03:09:00,
2013-09-26 22:14:00,70.0,60.6,-100.00,ESE,117,0.0,1.0,72,0.00,,,0.00,meteohub,2013-09-27 03:14:00,
2013-09-26 22:19:00,70.0,60.6,-100.00,ESE,117,0.0,1.0,72,0.00,,,0.00,meteohub,2013-09-27 03:19:00,
2013-09-26 22:24:00,70.0,60.6,-100.00,ESE,118,0.0,1.0,72,0.00,,,0.00,meteohub,2013-09-27 03:24:00,
2013-09-26 22:29:00,69.8,60.4,-100.00,ESE,117,0.0,1.0,72,0.00,,,0.00,meteohub,2013-09-27 03:29:00,
2013-09-26 22:34:00,69.8,60.4,-100.00,ESE,118,0.0,3.0,72,0.00,,,0.00,meteohub,2013-09-27 03:34:00,
2013-09-26 22:39:00,70.0,60.1,-100.00,ESE,118,0.0,3.0,71,0.00,,,0.00,meteohub,2013-09-27 03:39:00,
2013-09-26 22:44:00,69.8,59.9,-100.00,ESE,118,0.0,3.0,71,0.00,,,0.00,meteohub,2013-09-27 03:44:00,
2013-09-26 22:49:00,69.6,60.3,-100.00,ESE,119,0.0,2.0,72,0.00,,,0.00,meteohub,2013-09-27 03:49:00,
2013-09-26 22:54:00,69.6,60.3,-100.00,ESE,119,3.0,4.0,72,0.00,,,0.00,meteohub,2013-09-27 03:54:00,
2013-09-26 22:59:00,69.6,60.3,-100.00,ESE,119,0.0,4.0,72,0.00,,,0.00,meteohub,2013-09-27 03:59:00,
2013-09-26 23:01:00,69.4,60.1,-100.00,ESE,118,0.0,4.0,72,0.00,,,0.00,meteohub,2013-09-27 04:01:00,
2013-09-26 23:06:00,69.4,60.1,-100.00,ESE,119,0.0,3.0,72,0.00,,,0.00,meteohub,2013-09-27 04:06:00,
2013-09-26 23:11:00,69.4,60.1,-100.00,ESE,121,0.0,1.0,72,0.00,,,0.00,meteohub,2013-09-27 04:11:00,
2013-09-26 23:17:00,69.4,59.5,-100.00,ESE,121,0.0,1.0,71,0.00,,,0.00,meteohub,2013-09-27 04:17:00,
2013-09-26 23:22:00,69.4,59.5,-100.00,ESE,121,0.0,1.0,71,0.00,,,0.00,meteohub,2013-09-27 04:22:00,
2013-09-26 23:27:00,69.3,59.5,-100.00,ESE,121,0.0,1.0,71,0.00,,,0.00,meteohub,2013-09-27 04:27:00,
2013-09-26 23:32:00,69.3,59.5,-100.00,ESE,121,0.0,1.0,71,0.00,,,0.00,meteohub,2013-09-27 04:32:00,
2013-09-26 23:37:00,69.3,59.5,-100.00,ESE,123,0.0,1.0,71,0.00,,,0.00,meteohub,2013-09-27 04:37:00,
2013-09-26 23:42:00,69.1,59.4,-100.00,ESE,123,0.0,3.0,71,0.00,,,0.00,meteohub,2013-09-27 04:42:00,
2013-09-26 23:47:00,69.1,59.4,-100.00,ESE,123,0.0,3.0,71,0.00,,,0.00,meteohub,2013-09-27 04:47:00,
2013-09-26 23:52:00,69.1,59.4,-100.00,ESE,122,0.0,4.0,71,0.00,,,0.00,meteohub,2013-09-27 04:52:00,
2013-09-26 23:57:00,69.1,59.4,-100.00,ESE,122,0.0,4.0,71,0.00,,,0.00,meteohub,2013-09-27 04:57:00,